SKVV/VVC METAR and TAF weather

Enter ICAO airport designator
Station Type Date Time Source
SKVV METAR 2020/09/21 23:00 UTC NOAA

SKVV 212300Z 26004KT 9999 FEW020 28/21 A2985


Station Type Date Time Source
SKVV Decoded METAR 2020/09/21 23:00 UTC NOAA

Villavicencio / Vanguardia, Colombia (SKVV) 04-10N 073-37W 431M
Sep 21, 2020 - 07:00 PM EDT / 2020.09.21 2300 UTC
Wind: from the W (260 degrees) at 5 MPH (4 KT):0
Visibility: greater than 7 mile(s):0
Sky conditions: mostly clear
Temperature: 82 F (28 C)
Dew Point: 69 F (21 C)
Relative Humidity: 65%
Pressure (altimeter): 29.85 in. Hg (1010 hPa)
ob: SKVV 212300Z 26004KT 9999 FEW020 28/21 A2985
cycle: 23

Station Type Date Time Source
SKVV TAF UTC NOAA

Error!

Example: see airport list